sensor_id;sensor_type;location;lat;lon;timestamp;temperature;humidity
8002;DHT22;4046;48.774;8.732;2023-04-09T00:01:57;17.80;79.40
8002;DHT22;4046;48.774;8.732;2023-04-09T00:04:23;17.80;79.40
8002;DHT22;4046;48.774;8.732;2023-04-09T00:06:49;17.80;79.40
8002;DHT22;4046;48.774;8.732;2023-04-09T00:09:15;17.80;79.40
8002;DHT22;4046;48.774;8.732;2023-04-09T00:11:42;17.80;79.40
8002;DHT22;4046;48.774;8.732;2023-04-09T00:14:08;17.80;79.30
8002;DHT22;4046;48.774;8.732;2023-04-09T00:16:34;17.80;79.30
8002;DHT22;4046;48.774;8.732;2023-04-09T00:19:00;17.80;79.30
8002;DHT22;4046;48.774;8.732;2023-04-09T00:21:27;17.80;79.50
8002;DHT22;4046;48.774;8.732;2023-04-09T00:23:53;17.80;79.40
8002;DHT22;4046;48.774;8.732;2023-04-09T00:26:19;17.80;79.40
8002;DHT22;4046;48.774;8.732;2023-04-09T00:28:46;17.70;79.40
8002;DHT22;4046;48.774;8.732;2023-04-09T00:31:12;17.70;79.40
8002;DHT22;4046;48.774;8.732;2023-04-09T00:33:38;17.70;79.30
8002;DHT22;4046;48.774;8.732;2023-04-09T00:36:04;17.70;79.30
8002;DHT22;4046;48.774;8.732;2023-04-09T00:38:31;17.70;79.30
8002;DHT22;4046;48.774;8.732;2023-04-09T00:40:57;17.70;80.10
8002;DHT22;4046;48.774;8.732;2023-04-09T00:43:23;17.70;79.30
8002;DHT22;4046;48.774;8.732;2023-04-09T00:45:50;17.70;79.30
8002;DHT22;4046;48.774;8.732;2023-04-09T00:48:16;17.70;79.40
8002;DHT22;4046;48.774;8.732;2023-04-09T00:50:42;17.70;79.30
8002;DHT22;4046;48.774;8.732;2023-04-09T00:53:10;17.70;79.30
8002;DHT22;4046;48.774;8.732;2023-04-09T00:55:39;17.70;79.30
8002;DHT22;4046;48.774;8.732;2023-04-09T00:58:06;17.70;79.30
8002;DHT22;4046;48.774;8.732;2023-04-09T01:00:32;17.70;79.40
8002;DHT22;4046;48.774;8.732;2023-04-09T01:02:59;17.60;80.10
8002;DHT22;4046;48.774;8.732;2023-04-09T01:05:33;17.60;79.20
8002;DHT22;4046;48.774;8.732;2023-04-09T01:08:30;17.70;79.30
8002;DHT22;4046;48.774;8.732;2023-04-09T01:13:48;17.60;79.20
8002;DHT22;4046;48.774;8.732;2023-04-09T01:16:18;17.60;79.20
8002;DHT22;4046;48.774;8.732;2023-04-09T01:19:00;17.60;79.30
8002;DHT22;4046;48.774;8.732;2023-04-09T01:21:31;17.60;79.30
8002;DHT22;4046;48.774;8.732;2023-04-09T01:27:06;17.60;79.30
8002;DHT22;4046;48.774;8.732;2023-04-09T01:29:34;17.60;79.30
8002;DHT22;4046;48.774;8.732;2023-04-09T01:32:04;17.60;79.30
8002;DHT22;4046;48.774;8.732;2023-04-09T01:34:32;17.60;79.30
8002;DHT22;4046;48.774;8.732;2023-04-09T01:37:01;17.60;79.30
8002;DHT22;4046;48.774;8.732;2023-04-09T01:39:28;17.50;79.20
8002;DHT22;4046;48.774;8.732;2023-04-09T01:41:55;17.50;79.20
8002;DHT22;4046;48.774;8.732;2023-04-09T01:44:23;17.50;79.20
8002;DHT22;4046;48.774;8.732;2023-04-09T01:46:50;17.50;79.10
8002;DHT22;4046;48.774;8.732;2023-04-09T01:49:17;17.50;79.20
8002;DHT22;4046;48.774;8.732;2023-04-09T01:51:43;17.60;79.30
8002;DHT22;4046;48.774;8.732;2023-04-09T01:54:10;17.50;79.20
8002;DHT22;4046;48.774;8.732;2023-04-09T01:56:43;17.60;79.30
8002;DHT22;4046;48.774;8.732;2023-04-09T01:59:10;17.50;79.20
8002;DHT22;4046;48.774;8.732;2023-04-09T02:01:44;17.50;79.20
8002;DHT22;4046;48.774;8.732;2023-04-09T02:04:22;17.50;79.20
8002;DHT22;4046;48.774;8.732;2023-04-09T02:07:20;17.50;79.20
8002;DHT22;4046;48.774;8.732;2023-04-09T02:09:52;17.50;79.30
8002;DHT22;4046;48.774;8.732;2023-04-09T02:12:20;17.50;79.20
8002;DHT22;4046;48.774;8.732;2023-04-09T02:14:50;17.50;79.50
8002;DHT22;4046;48.774;8.732;2023-04-09T02:17:16;17.50;79.20
8002;DHT22;4046;48.774;8.732;2023-04-09T02:19:44;17.50;79.30
8002;DHT22;4046;48.774;8.732;2023-04-09T02:22:12;17.50;79.20
8002;DHT22;4046;48.774;8.732;2023-04-09T02:24:38;17.40;79.10
8002;DHT22;4046;48.774;8.732;2023-04-09T02:27:05;17.40;79.10
8002;DHT22;4046;48.774;8.732;2023-04-09T02:29:32;17.40;79.10
8002;DHT22;4046;48.774;8.732;2023-04-09T02:31:58;17.40;79.10
8002;DHT22;4046;48.774;8.732;2023-04-09T02:34:25;17.40;79.10
8002;DHT22;4046;48.774;8.732;2023-04-09T02:36:51;17.40;79.10
8002;DHT22;4046;48.774;8.732;2023-04-09T02:39:17;17.40;79.10
8002;DHT22;4046;48.774;8.732;2023-04-09T02:41:43;17.40;79.10
8002;DHT22;4046;48.774;8.732;2023-04-09T02:44:10;17.40;79.10
8002;DHT22;4046;48.774;8.732;2023-04-09T02:46:37;17.40;79.10
8002;DHT22;4046;48.774;8.732;2023-04-09T02:49:04;17.40;79.10
8002;DHT22;4046;48.774;8.732;2023-04-09T02:51:30;17.40;79.10
8002;DHT22;4046;48.774;8.732;2023-04-09T02:53:56;17.40;79.10
8002;DHT22;4046;48.774;8.732;2023-04-09T02:56:22;17.40;79.10
8002;DHT22;4046;48.774;8.732;2023-04-09T02:58:48;17.30;79.10
8002;DHT22;4046;48.774;8.732;2023-04-09T03:01:19;17.30;79.10
8002;DHT22;4046;48.774;8.732;2023-04-09T03:03:46;17.40;79.10
8002;DHT22;4046;48.774;8.732;2023-04-09T03:06:12;17.30;79.10
8002;DHT22;4046;48.774;8.732;2023-04-09T03:08:38;17.40;79.10
8002;DHT22;4046;48.774;8.732;2023-04-09T03:11:04;17.30;79.50
8002;DHT22;4046;48.774;8.732;2023-04-09T03:13:31;17.30;79.10
8002;DHT22;4046;48.774;8.732;2023-04-09T03:15:57;17.30;79.10
8002;DHT22;4046;48.774;8.732;2023-04-09T03:18:23;17.30;79.00
8002;DHT22;4046;48.774;8.732;2023-04-09T03:20:49;17.30;79.00
8002;DHT22;4046;48.774;8.732;2023-04-09T03:23:15;17.30;79.10
8002;DHT22;4046;48.774;8.732;2023-04-09T03:25:42;17.30;79.10
8002;DHT22;4046;48.774;8.732;2023-04-09T03:28:08;17.30;79.10
8002;DHT22;4046;48.774;8.732;2023-04-09T03:30:34;17.30;79.00
8002;DHT22;4046;48.774;8.732;2023-04-09T03:33:00;17.30;79.10
8002;DHT22;4046;48.774;8.732;2023-04-09T03:35:26;17.30;79.10
8002;DHT22;4046;48.774;8.732;2023-04-09T03:37:53;17.30;79.10
8002;DHT22;4046;48.774;8.732;2023-04-09T03:40:19;17.30;79.10
8002;DHT22;4046;48.774;8.732;2023-04-09T03:42:45;17.30;79.00
8002;DHT22;4046;48.774;8.732;2023-04-09T03:45:11;17.30;79.10
8002;DHT22;4046;48.774;8.732;2023-04-09T03:47:37;17.20;79.00
8002;DHT22;4046;48.774;8.732;2023-04-09T03:50:04;17.20;79.00
8002;DHT22;4046;48.774;8.732;2023-04-09T03:52:30;17.20;79.00
8002;DHT22;4046;48.774;8.732;2023-04-09T03:54:57;17.20;79.40
8002;DHT22;4046;48.774;8.732;2023-04-09T03:57:23;17.20;79.00
8002;DHT22;4046;48.774;8.732;2023-04-09T03:59:49;17.20;79.00
8002;DHT22;4046;48.774;8.732;2023-04-09T04:02:15;17.20;79.00
8002;DHT22;4046;48.774;8.732;2023-04-09T04:04:41;17.20;79.10
8002;DHT22;4046;48.774;8.732;2023-04-09T04:07:07;17.20;79.10
8002;DHT22;4046;48.774;8.732;2023-04-09T04:09:34;17.20;79.00
8002;DHT22;4046;48.774;8.732;2023-04-09T04:12:00;17.20;79.00
8002;DHT22;4046;48.774;8.732;2023-04-09T04:14:27;17.20;79.00
8002;DHT22;4046;48.774;8.732;2023-04-09T04:16:53;17.20;79.00
8002;DHT22;4046;48.774;8.732;2023-04-09T04:19:19;17.20;79.00
8002;DHT22;4046;48.774;8.732;2023-04-09T04:21:45;17.20;79.10
8002;DHT22;4046;48.774;8.732;2023-04-09T04:24:11;17.20;79.00
8002;DHT22;4046;48.774;8.732;2023-04-09T04:26:38;17.20;79.20
8002;DHT22;4046;48.774;8.732;2023-04-09T04:29:05;17.10;79.00
8002;DHT22;4046;48.774;8.732;2023-04-09T04:31:31;17.10;79.10
8002;DHT22;4046;48.774;8.732;2023-04-09T04:33:58;17.20;79.10
8002;DHT22;4046;48.774;8.732;2023-04-09T04:36:24;17.20;79.10
8002;DHT22;4046;48.774;8.732;2023-04-09T04:38:51;17.20;79.10
8002;DHT22;4046;48.774;8.732;2023-04-09T04:41:17;17.10;79.00
8002;DHT22;4046;48.774;8.732;2023-04-09T04:43:45;17.10;78.80
8002;DHT22;4046;48.774;8.732;2023-04-09T04:46:12;17.20;79.00
8002;DHT22;4046;48.774;8.732;2023-04-09T04:48:38;17.10;78.90
8002;DHT22;4046;48.774;8.732;2023-04-09T04:51:04;17.10;78.80
8002;DHT22;4046;48.774;8.732;2023-04-09T04:53:30;17.10;78.80
8002;DHT22;4046;48.774;8.732;2023-04-09T04:55:56;17.10;78.90
8002;DHT22;4046;48.774;8.732;2023-04-09T04:58:24;17.10;78.90
8002;DHT22;4046;48.774;8.732;2023-04-09T05:00:50;17.10;78.90
8002;DHT22;4046;48.774;8.732;2023-04-09T05:03:17;17.10;79.60
8002;DHT22;4046;48.774;8.732;2023-04-09T05:05:43;17.10;78.80
8002;DHT22;4046;48.774;8.732;2023-04-09T05:08:10;17.10;78.90
8002;DHT22;4046;48.774;8.732;2023-04-09T05:10:39;17.10;78.90
8002;DHT22;4046;48.774;8.732;2023-04-09T05:13:05;17.10;78.90
8002;DHT22;4046;48.774;8.732;2023-04-09T05:15:31;17.10;78.90
8002;DHT22;4046;48.774;8.732;2023-04-09T05:17:57;17.10;78.90
8002;DHT22;4046;48.774;8.732;2023-04-09T05:20:26;17.10;78.90
8002;DHT22;4046;48.774;8.732;2023-04-09T05:22:52;17.10;78.90
8002;DHT22;4046;48.774;8.732;2023-04-09T05:25:18;17.10;78.80
8002;DHT22;4046;48.774;8.732;2023-04-09T05:27:45;17.10;78.80
8002;DHT22;4046;48.774;8.732;2023-04-09T05:30:11;17.10;78.80
8002;DHT22;4046;48.774;8.732;2023-04-09T05:32:38;17.10;78.70
8002;DHT22;4046;48.774;8.732;2023-04-09T05:35:04;17.10;78.80
8002;DHT22;4046;48.774;8.732;2023-04-09T05:37:30;17.10;78.80
8002;DHT22;4046;48.774;8.732;2023-04-09T05:39:57;17.10;78.80
8002;DHT22;4046;48.774;8.732;2023-04-09T05:42:23;17.10;78.80
8002;DHT22;4046;48.774;8.732;2023-04-09T05:44:49;17.10;78.80
8002;DHT22;4046;48.774;8.732;2023-04-09T05:47:16;17.10;78.80
8002;DHT22;4046;48.774;8.732;2023-04-09T05:49:42;17.10;78.70
8002;DHT22;4046;48.774;8.732;2023-04-09T05:52:08;17.10;78.70
8002;DHT22;4046;48.774;8.732;2023-04-09T05:54:34;17.10;78.60
8002;DHT22;4046;48.774;8.732;2023-04-09T05:57:01;17.10;78.60
8002;DHT22;4046;48.774;8.732;2023-04-09T05:59:27;17.10;78.60
8002;DHT22;4046;48.774;8.732;2023-04-09T06:01:53;17.10;78.70
8002;DHT22;4046;48.774;8.732;2023-04-09T06:04:20;17.10;78.60
8002;DHT22;4046;48.774;8.732;2023-04-09T06:06:46;17.10;78.50
8002;DHT22;4046;48.774;8.732;2023-04-09T06:09:12;17.20;78.60
8002;DHT22;4046;48.774;8.732;2023-04-09T06:11:38;17.10;78.50
8002;DHT22;4046;48.774;8.732;2023-04-09T06:14:04;17.20;78.60
8002;DHT22;4046;48.774;8.732;2023-04-09T06:16:32;17.10;78.50
8002;DHT22;4046;48.774;8.732;2023-04-09T06:18:58;17.20;78.50
8002;DHT22;4046;48.774;8.732;2023-04-09T06:21:24;17.20;78.50
8002;DHT22;4046;48.774;8.732;2023-04-09T06:23:50;17.20;78.40
8002;DHT22;4046;48.774;8.732;2023-04-09T06:26:18;17.20;78.50
8002;DHT22;4046;48.774;8.732;2023-04-09T06:28:44;17.20;78.50
8002;DHT22;4046;48.774;8.732;2023-04-09T06:31:10;17.20;78.50
8002;DHT22;4046;48.774;8.732;2023-04-09T06:33:37;17.20;78.40
8002;DHT22;4046;48.774;8.732;2023-04-09T06:36:03;17.20;78.40
8002;DHT22;4046;48.774;8.732;2023-04-09T06:38:29;17.20;78.40
8002;DHT22;4046;48.774;8.732;2023-04-09T06:40:56;17.20;78.40
8002;DHT22;4046;48.774;8.732;2023-04-09T06:43:22;17.20;78.30
8002;DHT22;4046;48.774;8.732;2023-04-09T06:45:49;17.20;78.30
8002;DHT22;4046;48.774;8.732;2023-04-09T06:48:15;17.20;78.20
8002;DHT22;4046;48.774;8.732;2023-04-09T06:50:41;17.20;78.20
8002;DHT22;4046;48.774;8.732;2023-04-09T06:53:07;17.20;78.30
8002;DHT22;4046;48.774;8.732;2023-04-09T06:55:34;17.20;78.30
8002;DHT22;4046;48.774;8.732;2023-04-09T06:58:00;17.20;78.20
8002;DHT22;4046;48.774;8.732;2023-04-09T07:00:27;17.30;78.20
8002;DHT22;4046;48.774;8.732;2023-04-09T07:02:53;17.30;78.30
8002;DHT22;4046;48.774;8.732;2023-04-09T07:05:20;17.30;78.40
8002;DHT22;4046;48.774;8.732;2023-04-09T07:07:46;17.30;78.10
8002;DHT22;4046;48.774;8.732;2023-04-09T07:10:12;17.40;78.10
8002;DHT22;4046;48.774;8.732;2023-04-09T07:12:38;17.50;78.00
8002;DHT22;4046;48.774;8.732;2023-04-09T07:15:05;17.50;78.00
8002;DHT22;4046;48.774;8.732;2023-04-09T07:17:33;17.50;77.90
8002;DHT22;4046;48.774;8.732;2023-04-09T07:20:00;17.50;77.90
8002;DHT22;4046;48.774;8.732;2023-04-09T07:22:28;17.60;77.90
8002;DHT22;4046;48.774;8.732;2023-04-09T07:24:54;17.60;77.90
8002;DHT22;4046;48.774;8.732;2023-04-09T07:27:25;17.60;77.90
8002;DHT22;4046;48.774;8.732;2023-04-09T07:29:56;17.60;77.90
8002;DHT22;4046;48.774;8.732;2023-04-09T07:32:24;17.70;77.90
8002;DHT22;4046;48.774;8.732;2023-04-09T07:34:51;17.70;77.90
8002;DHT22;4046;48.774;8.732;2023-04-09T07:37:18;17.70;77.80
8002;DHT22;4046;48.774;8.732;2023-04-09T07:39:44;17.70;77.70
8002;DHT22;4046;48.774;8.732;2023-04-09T07:42:11;17.80;77.80
8002;DHT22;4046;48.774;8.732;2023-04-09T07:44:37;17.80;77.70
8002;DHT22;4046;48.774;8.732;2023-04-09T07:47:05;17.80;77.60
8002;DHT22;4046;48.774;8.732;2023-04-09T07:49:32;17.80;77.60
8002;DHT22;4046;48.774;8.732;2023-04-09T07:51:59;17.80;77.60
8002;DHT22;4046;48.774;8.732;2023-04-09T07:54:25;17.80;77.50
8002;DHT22;4046;48.774;8.732;2023-04-09T07:56:51;17.80;77.50
8002;DHT22;4046;48.774;8.732;2023-04-09T07:59:17;17.80;77.50
8002;DHT22;4046;48.774;8.732;2023-04-09T08:01:44;17.80;77.50
8002;DHT22;4046;48.774;8.732;2023-04-09T08:04:10;17.80;77.50
8002;DHT22;4046;48.774;8.732;2023-04-09T08:06:38;17.90;77.60
8002;DHT22;4046;48.774;8.732;2023-04-09T08:09:04;17.90;77.60
8002;DHT22;4046;48.774;8.732;2023-04-09T08:11:30;17.90;77.50
8002;DHT22;4046;48.774;8.732;2023-04-09T08:13:56;17.90;77.50
8002;DHT22;4046;48.774;8.732;2023-04-09T08:16:23;17.90;77.40
8002;DHT22;4046;48.774;8.732;2023-04-09T08:18:49;17.90;77.40
8002;DHT22;4046;48.774;8.732;2023-04-09T08:21:17;18.00;77.50
8002;DHT22;4046;48.774;8.732;2023-04-09T08:23:43;17.90;77.40
8002;DHT22;4046;48.774;8.732;2023-04-09T08:26:09;18.00;77.50
8002;DHT22;4046;48.774;8.732;2023-04-09T08:28:36;18.00;77.40
8002;DHT22;4046;48.774;8.732;2023-04-09T08:31:02;18.00;77.40
8002;DHT22;4046;48.774;8.732;2023-04-09T08:33:28;18.00;77.30
8002;DHT22;4046;48.774;8.732;2023-04-09T08:35:55;18.10;77.30
8002;DHT22;4046;48.774;8.732;2023-04-09T08:38:21;18.20;77.40
8002;DHT22;4046;48.774;8.732;2023-04-09T08:40:47;18.20;77.30
8002;DHT22;4046;48.774;8.732;2023-04-09T08:43:14;18.20;77.20
8002;DHT22;4046;48.774;8.732;2023-04-09T08:45:41;18.20;77.10
8002;DHT22;4046;48.774;8.732;2023-04-09T08:48:09;18.20;77.40
8002;DHT22;4046;48.774;8.732;2023-04-09T08:50:36;18.30;77.40
8002;DHT22;4046;48.774;8.732;2023-04-09T08:53:04;18.20;77.20
8002;DHT22;4046;48.774;8.732;2023-04-09T08:55:31;18.20;77.30
8002;DHT22;4046;48.774;8.732;2023-04-09T08:58:02;18.20;77.20
8002;DHT22;4046;48.774;8.732;2023-04-09T09:00:29;18.10;77.10
8002;DHT22;4046;48.774;8.732;2023-04-09T09:03:06;18.10;77.20
8002;DHT22;4046;48.774;8.732;2023-04-09T09:05:40;18.10;77.30
8002;DHT22;4046;48.774;8.732;2023-04-09T09:08:12;18.00;77.20
8002;DHT22;4046;48.774;8.732;2023-04-09T09:10:43;18.00;77.20
8002;DHT22;4046;48.774;8.732;2023-04-09T09:13:20;18.00;77.10
8002;DHT22;4046;48.774;8.732;2023-04-09T09:15:51;18.00;77.20
8002;DHT22;4046;48.774;8.732;2023-04-09T09:18:37;18.00;77.40
8002;DHT22;4046;48.774;8.732;2023-04-09T09:21:14;18.10;78.10
8002;DHT22;4046;48.774;8.732;2023-04-09T09:23:41;18.20;78.00
8002;DHT22;4046;48.774;8.732;2023-04-09T09:26:15;18.30;77.90
8002;DHT22;4046;48.774;8.732;2023-04-09T09:28:47;18.30;77.50
8002;DHT22;4046;48.774;8.732;2023-04-09T09:31:15;18.30;77.10
8002;DHT22;4046;48.774;8.732;2023-04-09T09:33:42;18.40;76.70
8002;DHT22;4046;48.774;8.732;2023-04-09T09:36:08;18.40;76.30
8002;DHT22;4046;48.774;8.732;2023-04-09T09:38:51;18.40;76.10
8002;DHT22;4046;48.774;8.732;2023-04-09T09:41:18;18.30;76.00
8002;DHT22;4046;48.774;8.732;2023-04-09T09:43:45;18.30;76.10
8002;DHT22;4046;48.774;8.732;2023-04-09T09:46:11;18.20;76.10
8002;DHT22;4046;48.774;8.732;2023-04-09T09:48:38;18.20;76.20
8002;DHT22;4046;48.774;8.732;2023-04-09T09:51:12;18.20;76.30
8002;DHT22;4046;48.774;8.732;2023-04-09T09:53:40;18.20;76.30
8002;DHT22;4046;48.774;8.732;2023-04-09T09:56:14;18.20;76.30
8002;DHT22;4046;48.774;8.732;2023-04-09T09:59:00;18.20;76.40
8002;DHT22;4046;48.774;8.732;2023-04-09T10:01:28;18.10;76.40
8002;DHT22;4046;48.774;8.732;2023-04-09T10:03:55;18.00;76.20
8002;DHT22;4046;48.774;8.732;2023-04-09T10:06:25;18.00;76.40
8002;DHT22;4046;48.774;8.732;2023-04-09T10:08:56;18.00;76.20
8002;DHT22;4046;48.774;8.732;2023-04-09T10:11:23;17.90;76.20
8002;DHT22;4046;48.774;8.732;2023-04-09T10:13:54;17.90;76.30
8002;DHT22;4046;48.774;8.732;2023-04-09T10:16:21;17.90;76.30
8002;DHT22;4046;48.774;8.732;2023-04-09T10:18:48;17.90;76.30
8002;DHT22;4046;48.774;8.732;2023-04-09T10:21:37;17.90;76.20
8002;DHT22;4046;48.774;8.732;2023-04-09T10:24:07;17.90;76.10
8002;DHT22;4046;48.774;8.732;2023-04-09T10:26:36;17.90;76.00
8002;DHT22;4046;48.774;8.732;2023-04-09T10:29:06;17.90;76.10
8002;DHT22;4046;48.774;8.732;2023-04-09T10:31:52;17.80;76.00
8002;DHT22;4046;48.774;8.732;2023-04-09T10:34:25;17.80;76.10
8002;DHT22;4046;48.774;8.732;2023-04-09T10:36:55;17.80;76.20
8002;DHT22;4046;48.774;8.732;2023-04-09T10:39:26;17.80;76.30
8002;DHT22;4046;48.774;8.732;2023-04-09T10:41:54;17.70;76.30
8002;DHT22;4046;48.774;8.732;2023-04-09T10:44:24;17.70;76.30
8002;DHT22;4046;48.774;8.732;2023-04-09T10:46:55;17.70;76.10
8002;DHT22;4046;48.774;8.732;2023-04-09T10:49:23;17.70;76.30
8002;DHT22;4046;48.774;8.732;2023-04-09T10:52:10;17.70;76.30
8002;DHT22;4046;48.774;8.732;2023-04-09T10:54:43;17.70;76.20
8002;DHT22;4046;48.774;8.732;2023-04-09T10:57:21;17.70;76.30
8002;DHT22;4046;48.774;8.732;2023-04-09T10:59:52;17.70;76.30
8002;DHT22;4046;48.774;8.732;2023-04-09T11:02:36;17.60;76.20
8002;DHT22;4046;48.774;8.732;2023-04-09T11:08:18;17.60;76.30
8002;DHT22;4046;48.774;8.732;2023-04-09T11:10:45;17.60;76.30
8002;DHT22;4046;48.774;8.732;2023-04-09T11:13:16;17.60;76.30
8002;DHT22;4046;48.774;8.732;2023-04-09T11:15:44;17.60;76.20
8002;DHT22;4046;48.774;8.732;2023-04-09T11:18:23;17.60;76.20
8002;DHT22;4046;48.774;8.732;2023-04-09T11:20:58;17.70;76.30
8002;DHT22;4046;48.774;8.732;2023-04-09T11:23:25;17.70;76.20
8002;DHT22;4046;48.774;8.732;2023-04-09T11:25:52;17.80;76.20
8002;DHT22;4046;48.774;8.732;2023-04-09T11:28:19;17.80;76.10
8002;DHT22;4046;48.774;8.732;2023-04-09T11:30:46;17.80;76.00
8002;DHT22;4046;48.774;8.732;2023-04-09T11:33:13;17.80;76.00
8002;DHT22;4046;48.774;8.732;2023-04-09T11:35:39;17.80;76.00
8002;DHT22;4046;48.774;8.732;2023-04-09T11:38:07;17.70;75.90
8002;DHT22;4046;48.774;8.732;2023-04-09T11:40:34;17.70;75.90
8002;DHT22;4046;48.774;8.732;2023-04-09T11:43:00;17.70;76.00
8002;DHT22;4046;48.774;8.732;2023-04-09T11:45:29;17.70;76.00
8002;DHT22;4046;48.774;8.732;2023-04-09T11:47:56;17.70;76.10
8002;DHT22;4046;48.774;8.732;2023-04-09T11:50:23;17.70;76.10
8002;DHT22;4046;48.774;8.732;2023-04-09T11:52:50;17.70;76.10
8002;DHT22;4046;48.774;8.732;2023-04-09T11:55:26;17.70;76.20
8002;DHT22;4046;48.774;8.732;2023-04-09T11:57:57;17.70;76.20
8002;DHT22;4046;48.774;8.732;2023-04-09T12:00:23;17.70;76.30
8002;DHT22;4046;48.774;8.732;2023-04-09T12:02:57;17.60;76.20
8002;DHT22;4046;48.774;8.732;2023-04-09T12:05:27;17.60;76.20
8002;DHT22;4046;48.774;8.732;2023-04-09T12:08:07;17.60;76.20
8002;DHT22;4046;48.774;8.732;2023-04-09T12:10:35;17.60;76.20
8002;DHT22;4046;48.774;8.732;2023-04-09T12:13:05;17.60;76.20
8002;DHT22;4046;48.774;8.732;2023-04-09T12:15:34;17.60;76.20
8002;DHT22;4046;48.774;8.732;2023-04-09T12:18:01;17.60;76.30
8002;DHT22;4046;48.774;8.732;2023-04-09T12:20:38;17.60;76.20
8002;DHT22;4046;48.774;8.732;2023-04-09T12:23:05;17.60;76.20
8002;DHT22;4046;48.774;8.732;2023-04-09T12:25:34;17.70;76.30
8002;DHT22;4046;48.774;8.732;2023-04-09T12:28:04;17.70;76.30
8002;DHT22;4046;48.774;8.732;2023-04-09T12:30:32;17.70;76.30
8002;DHT22;4046;48.774;8.732;2023-04-09T12:32:58;17.70;76.20
8002;DHT22;4046;48.774;8.732;2023-04-09T12:35:25;17.70;76.20
8002;DHT22;4046;48.774;8.732;2023-04-09T12:37:52;17.70;76.10
8002;DHT22;4046;48.774;8.732;2023-04-09T12:40:19;17.70;76.20
8002;DHT22;4046;48.774;8.732;2023-04-09T12:42:45;17.70;76.20
8002;DHT22;4046;48.774;8.732;2023-04-09T12:45:14;17.70;76.20
8002;DHT22;4046;48.774;8.732;2023-04-09T12:47:40;17.70;76.20
8002;DHT22;4046;48.774;8.732;2023-04-09T12:50:08;17.70;76.10
8002;DHT22;4046;48.774;8.732;2023-04-09T12:52:35;17.70;76.10
8002;DHT22;4046;48.774;8.732;2023-04-09T12:55:02;17.70;76.10
8002;DHT22;4046;48.774;8.732;2023-04-09T12:57:29;17.70;76.20
8002;DHT22;4046;48.774;8.732;2023-04-09T12:59:55;17.70;76.10
8002;DHT22;4046;48.774;8.732;2023-04-09T13:02:22;17.70;76.10
8002;DHT22;4046;48.774;8.732;2023-04-09T13:04:49;17.80;76.10
8002;DHT22;4046;48.774;8.732;2023-04-09T13:07:16;17.80;76.00
8002;DHT22;4046;48.774;8.732;2023-04-09T13:09:43;17.80;75.80
8002;DHT22;4046;48.774;8.732;2023-04-09T13:12:10;17.90;75.90
8002;DHT22;4046;48.774;8.732;2023-04-09T13:14:38;17.80;75.80
8002;DHT22;4046;48.774;8.732;2023-04-09T13:17:05;17.80;75.80
8002;DHT22;4046;48.774;8.732;2023-04-09T13:19:31;17.90;75.80
8002;DHT22;4046;48.774;8.732;2023-04-09T13:21:57;17.90;75.70
8002;DHT22;4046;48.774;8.732;2023-04-09T13:24:23;17.90;75.70
8002;DHT22;4046;48.774;8.732;2023-04-09T13:26:49;18.00;75.60
8002;DHT22;4046;48.774;8.732;2023-04-09T13:29:16;18.00;75.50
8002;DHT22;4046;48.774;8.732;2023-04-09T13:31:43;18.00;75.50
8002;DHT22;4046;48.774;8.732;2023-04-09T13:34:09;18.00;75.50
8002;DHT22;4046;48.774;8.732;2023-04-09T13:36:35;18.00;75.40
8002;DHT22;4046;48.774;8.732;2023-04-09T13:39:01;18.00;75.30
8002;DHT22;4046;48.774;8.732;2023-04-09T13:41:32;18.10;75.40
8002;DHT22;4046;48.774;8.732;2023-04-09T13:43:59;18.10;75.30
8002;DHT22;4046;48.774;8.732;2023-04-09T13:46:26;18.10;75.30
8002;DHT22;4046;48.774;8.732;2023-04-09T13:48:53;18.10;75.30
8002;DHT22;4046;48.774;8.732;2023-04-09T13:51:21;18.10;75.30
8002;DHT22;4046;48.774;8.732;2023-04-09T13:53:47;18.20;75.30
8002;DHT22;4046;48.774;8.732;2023-04-09T13:56:14;18.20;75.30
8002;DHT22;4046;48.774;8.732;2023-04-09T13:58:40;18.10;75.20
8002;DHT22;4046;48.774;8.732;2023-04-09T14:01:09;18.10;75.20
8002;DHT22;4046;48.774;8.732;2023-04-09T14:03:35;18.10;75.20
8002;DHT22;4046;48.774;8.732;2023-04-09T14:06:06;18.10;75.30
8002;DHT22;4046;48.774;8.732;2023-04-09T14:08:34;18.10;75.10
8002;DHT22;4046;48.774;8.732;2023-04-09T14:11:00;18.10;75.20
8002;DHT22;4046;48.774;8.732;2023-04-09T14:13:27;18.10;75.30
8002;DHT22;4046;48.774;8.732;2023-04-09T14:15:53;18.10;75.30
8002;DHT22;4046;48.774;8.732;2023-04-09T14:18:20;18.10;75.30
8002;DHT22;4046;48.774;8.732;2023-04-09T14:20:46;18.10;75.40
8002;DHT22;4046;48.774;8.732;2023-04-09T14:23:12;18.00;75.30
8002;DHT22;4046;48.774;8.732;2023-04-09T14:25:38;18.10;75.40
8002;DHT22;4046;48.774;8.732;2023-04-09T14:28:05;18.10;75.40
8002;DHT22;4046;48.774;8.732;2023-04-09T14:30:31;18.10;75.50
8002;DHT22;4046;48.774;8.732;2023-04-09T14:32:57;18.00;75.40
8002;DHT22;4046;48.774;8.732;2023-04-09T14:35:24;18.00;75.40
8002;DHT22;4046;48.774;8.732;2023-04-09T14:37:50;18.00;75.50
8002;DHT22;4046;48.774;8.732;2023-04-09T14:40:17;18.00;75.60
8002;DHT22;4046;48.774;8.732;2023-04-09T14:42:44;18.00;75.50
8002;DHT22;4046;48.774;8.732;2023-04-09T14:45:10;18.00;75.50
8002;DHT22;4046;48.774;8.732;2023-04-09T14:47:37;18.00;75.50
8002;DHT22;4046;48.774;8.732;2023-04-09T14:50:03;17.90;75.60
8002;DHT22;4046;48.774;8.732;2023-04-09T14:52:29;17.90;75.60
8002;DHT22;4046;48.774;8.732;2023-04-09T14:54:55;17.90;75.70
8002;DHT22;4046;48.774;8.732;2023-04-09T14:57:22;17.90;75.70
8002;DHT22;4046;48.774;8.732;2023-04-09T14:59:48;17.90;75.80
8002;DHT22;4046;48.774;8.732;2023-04-09T15:02:14;17.90;75.90
8002;DHT22;4046;48.774;8.732;2023-04-09T15:04:41;17.90;75.80
8002;DHT22;4046;48.774;8.732;2023-04-09T15:07:07;17.90;75.90
8002;DHT22;4046;48.774;8.732;2023-04-09T15:09:33;17.80;75.80
8002;DHT22;4046;48.774;8.732;2023-04-09T15:11:59;17.80;75.80
8002;DHT22;4046;48.774;8.732;2023-04-09T15:14:29;17.80;75.80
8002;DHT22;4046;48.774;8.732;2023-04-09T15:16:56;17.80;75.70
8002;DHT22;4046;48.774;8.732;2023-04-09T15:19:22;17.80;76.40
8002;DHT22;4046;48.774;8.732;2023-04-09T15:21:48;17.80;75.70
8002;DHT22;4046;48.774;8.732;2023-04-09T15:24:14;17.80;75.70
8002;DHT22;4046;48.774;8.732;2023-04-09T15:26:40;17.80;75.70
8002;DHT22;4046;48.774;8.732;2023-04-09T15:29:07;17.80;75.80
8002;DHT22;4046;48.774;8.732;2023-04-09T15:31:33;17.80;75.70
8002;DHT22;4046;48.774;8.732;2023-04-09T15:33:59;17.90;75.70
8002;DHT22;4046;48.774;8.732;2023-04-09T15:36:26;17.90;75.70
8002;DHT22;4046;48.774;8.732;2023-04-09T15:38:54;17.80;75.70
8002;DHT22;4046;48.774;8.732;2023-04-09T15:41:21;17.80;75.70
8002;DHT22;4046;48.774;8.732;2023-04-09T15:43:49;17.80;75.80
8002;DHT22;4046;48.774;8.732;2023-04-09T15:46:16;17.80;75.80
8002;DHT22;4046;48.774;8.732;2023-04-09T15:48:43;17.80;75.80
8002;DHT22;4046;48.774;8.732;2023-04-09T15:51:10;17.80;75.70
8002;DHT22;4046;48.774;8.732;2023-04-09T15:53:36;17.80;75.70
8002;DHT22;4046;48.774;8.732;2023-04-09T15:56:03;17.80;75.70
8002;DHT22;4046;48.774;8.732;2023-04-09T15:58:30;17.80;75.70
8002;DHT22;4046;48.774;8.732;2023-04-09T16:00:57;17.80;75.70
8002;DHT22;4046;48.774;8.732;2023-04-09T16:03:23;17.80;75.60
8002;DHT22;4046;48.774;8.732;2023-04-09T16:05:49;17.80;75.60
8002;DHT22;4046;48.774;8.732;2023-04-09T16:08:16;17.80;75.70
8002;DHT22;4046;48.774;8.732;2023-04-09T16:10:42;17.80;75.70
8002;DHT22;4046;48.774;8.732;2023-04-09T16:13:08;17.80;75.80
8002;DHT22;4046;48.774;8.732;2023-04-09T16:15:34;17.80;75.70